Time;durP1;ratioP1;P1;durP2;ratioP2;P2;SDS_P1;SDS_P2;PMS_P1;PMS_P2;Temp;Humidity;BMP_temperature;BMP_pressure;BME280_temperature;BME280_humidity;BME280_pressure;Samples;Min_cycle;Max_cycle;Signal;HPM_P1;HPM_P2
2022/08/05 00:02:08;;;;;;;1.58;1.48;;;28.50;1.00;;;;;;5031701;28;20029;-82
2022/08/05 00:04:33;;;;;;;1.60;1.50;;;28.50;1.00;;;;;;5031733;28;20029;-81
2022/08/05 00:06:59;;;;;;;3.03;1.50;;;28.40;1.00;;;;;;5031496;28;20014;-81
2022/08/05 00:09:25;;;;;;;3.53;1.38;;;28.40;1.00;;;;;;5031602;28;20032;-81
2022/08/05 00:11:51;;;;;;;1.90;1.10;;;28.40;1.00;;;;;;5031929;28;20032;-81
2022/08/05 00:14:16;;;;;;;1.23;1.13;;;28.40;1.00;;;;;;5031143;28;20033;-81
2022/08/05 00:16:43;;;;;;;1.20;1.10;;;28.40;1.00;;;;;;5035045;28;20390;-81
2022/08/05 00:19:09;;;;;;;1.45;1.35;;;28.40;1.00;;;;;;5035259;28;20030;-81
2022/08/05 00:21:34;;;;;;;1.90;1.05;;;28.30;1.00;;;;;;5035166;28;20539;-81
2022/08/05 00:24:00;;;;;;;3.92;1.40;;;28.30;1.00;;;;;;5035416;28;20051;-82
2022/08/05 00:26:26;;;;;;;2.40;1.20;;;28.30;1.00;;;;;;5034891;28;20049;-81
2022/08/05 00:28:52;;;;;;;2.28;1.20;;;28.20;1.00;;;;;;5034718;28;20030;-81
2022/08/05 00:31:17;;;;;;;1.58;1.48;;;28.20;1.00;;;;;;5035050;28;20060;-81
2022/08/05 00:33:43;;;;;;;1.30;1.20;;;28.10;1.00;;;;;;5034805;28;20037;-81
2022/08/05 00:36:09;;;;;;;1.23;1.13;;;28.00;1.00;;;;;;5034847;28;20017;-81
2022/08/05 00:38:34;;;;;;;1.27;1.17;;;28.00;1.00;;;;;;5034894;28;20048;-81
2022/08/05 00:41:00;;;;;;;2.17;1.20;;;28.00;1.00;;;;;;5035071;28;20026;-82
2022/08/05 00:43:27;;;;;;;2.13;1.20;;;27.90;1.00;;;;;;5034086;28;20026;-81
2022/08/05 00:45:54;;;;;;;1.30;1.20;;;27.90;1.00;;;;;;5034746;28;20037;-81
2022/08/05 00:48:21;;;;;;;1.52;1.30;;;27.80;1.00;;;;;;5034693;28;20025;-81
2022/08/05 00:50:49;;;;;;;1.40;1.17;;;27.70;1.00;;;;;;5034711;28;20022;-81
2022/08/05 00:53:17;;;;;;;1.40;1.30;;;27.80;1.00;;;;;;5034900;28;20056;-81
2022/08/05 00:55:43;;;;;;;1.40;1.30;;;27.70;1.00;;;;;;5034565;28;20087;-81
2022/08/05 00:58:15;;;;;;;1.40;1.30;;;27.70;1.00;;;;;;5034162;28;20022;-82
2022/08/05 01:00:42;;;;;;;1.20;1.10;;;27.70;1.00;;;;;;5034376;28;20025;-81
2022/08/05 01:03:09;;;;;;;1.30;1.20;;;27.70;1.00;;;;;;5034642;28;20014;-81
2022/08/05 01:05:35;;;;;;;2.47;1.20;;;27.70;1.00;;;;;;5034365;28;20555;-81
2022/08/05 01:08:01;;;;;;;1.33;1.23;;;27.60;1.00;;;;;;5034163;28;20025;-81
2022/08/05 01:10:37;;;;;;;1.42;1.33;;;27.60;1.00;;;;;;5034683;28;20078;-81
2022/08/05 01:13:09;;;;;;;2.10;1.30;;;27.60;1.00;;;;;;5033712;28;20028;-81
2022/08/05 01:15:41;;;;;;;1.60;1.30;;;27.60;1.00;;;;;;5034348;28;20108;-81
2022/08/05 01:18:12;;;;;;;1.75;1.30;;;27.60;1.00;;;;;;5034226;28;20017;-81
2022/08/05 01:21:02;;;;;;;1.58;1.20;;;27.60;1.00;;;;;;5034038;28;20076;-81
2022/08/05 01:24:18;;;;;;;1.70;1.45;;;27.50;1.00;;;;;;5034083;28;20095;-81
2022/08/05 01:27:09;;;;;;;1.35;1.25;;;27.50;1.00;;;;;;4952225;28;20411;-81
2022/08/05 01:29:46;;;;;;;2.13;1.50;;;27.40;1.00;;;;;;4948093;28;20519;-81
2022/08/05 01:32:17;;;;;;;1.52;1.33;;;27.40;1.00;;;;;;4934552;29;20031;-81
2022/08/05 01:34:59;;;;;;;2.53;1.58;;;27.30;1.00;;;;;;4934297;29;20074;-82
2022/08/05 01:37:35;;;;;;;1.50;1.40;;;27.10;1.00;;;;;;4934460;29;20032;-82
2022/08/05 01:40:04;;;;;;;1.60;1.38;;;27.10;1.00;;;;;;4934342;29;20027;-81
2022/08/05 01:42:31;;;;;;;3.70;1.30;;;27.10;1.00;;;;;;4933813;29;20052;-81
2022/08/05 01:44:59;;;;;;;3.25;1.35;;;27.00;1.00;;;;;;4934068;29;20039;-82
2022/08/05 01:47:27;;;;;;;2.85;1.55;;;26.90;1.00;;;;;;4934470;29;20058;-81
2022/08/05 01:49:53;;;;;;;2.75;1.42;;;26.90;1.00;;;;;;4934213;29;20032;-81
2022/08/05 01:52:21;;;;;;;1.70;1.60;;;26.90;1.00;;;;;;4934226;29;20122;-81
2022/08/05 01:54:54;;;;;;;1.73;1.48;;;26.80;1.00;;;;;;4934078;29;20620;-81
2022/08/05 01:57:28;;;;;;;1.75;1.65;;;26.80;1.00;;;;;;4933750;29;20394;-81
2022/08/05 01:59:58;;;;;;;2.55;1.30;;;26.70;1.00;;;;;;4934054;29;20057;-81
2022/08/05 02:02:25;;;;;;;1.50;1.40;;;26.80;1.00;;;;;;4986541;28;20044;-81
2022/08/05 02:04:53;;;;;;;1.83;1.58;;;26.80;1.00;;;;;;5013794;28;20033;-81
2022/08/05 02:07:19;;;;;;;2.25;1.40;;;26.70;1.00;;;;;;5013543;28;20113;-80
2022/08/05 02:09:45;;;;;;;1.60;1.50;;;26.70;1.00;;;;;;5013238;28;20061;-81
2022/08/05 02:12:36;;;;;;;2.50;1.80;;;26.70;1.00;;;;;;5013204;28;20025;-81
2022/08/05 02:15:04;;;;;;;2.15;1.60;;;26.60;1.00;;;;;;5013239;28;20445;-81
2022/08/05 02:17:40;;;;;;;2.08;1.35;;;26.60;1.00;;;;;;5013009;28;20022;-81
2022/08/05 02:20:12;;;;;;;1.90;1.70;;;26.60;1.00;;;;;;5013492;28;20030;-81
2022/08/05 02:22:59;;;;;;;1.73;1.60;;;26.50;1.00;;;;;;5013275;28;20021;-81
2022/08/05 02:25:27;;;;;;;1.77;1.50;;;26.50;1.00;;;;;;5012892;28;20586;-81
2022/08/05 02:27:56;;;;;;;1.98;1.80;;;26.50;1.00;;;;;;5014546;28;20042;-81
2022/08/05 02:30:24;;;;;;;2.15;1.92;;;26.50;1.00;;;;;;5032799;28;20108;-81
2022/08/05 02:32:52;;;;;;;4.43;1.75;;;26.50;1.00;;;;;;5032799;28;20104;-80
2022/08/05 02:35:20;;;;;;;3.25;2.03;;;26.50;1.00;;;;;;5032721;28;20030;-81
2022/08/05 02:37:46;;;;;;;3.28;1.70;;;26.40;1.00;;;;;;5032391;28;20116;-81
2022/08/05 02:40:20;;;;;;;2.35;2.03;;;26.40;1.00;;;;;;5032236;28;20528;-81
2022/08/05 02:42:47;;;;;;;2.13;1.92;;;26.50;1.00;;;;;;5032141;28;20021;-83
2022/08/05 02:45:14;;;;;;;3.15;2.30;;;26.50;1.00;;;;;;5032403;28;20536;-81
2022/08/05 02:47:41;;;;;;;2.30;2.10;;;26.50;1.00;;;;;;5032463;28;20102;-82
2022/08/05 02:50:08;;;;;;;2.97;2.10;;;26.50;1.00;;;;;;5032419;28;20104;-81
2022/08/05 02:52:35;;;;;;;3.75;2.35;;;26.50;1.00;;;;;;5032834;28;20025;-81
2022/08/05 02:55:02;;;;;;;2.80;2.33;;;26.50;1.00;;;;;;5031938;28;20110;-81
2022/08/05 02:57:29;;;;;;;2.53;1.98;;;26.50;1.00;;;;;;5032324;28;20104;-81
2022/08/05 02:59:55;;;;;;;2.67;2.47;;;26.50;1.00;;;;;;5032428;28;20033;-81
2022/08/05 03:02:27;;;;;;;3.28;2.40;;;26.50;1.00;;;;;;5032251;28;20014;-81
2022/08/05 03:04:53;;;;;;;2.55;2.28;;;26.50;1.00;;;;;;5032204;28;20026;-81
2022/08/05 03:07:20;;;;;;;2.42;2.08;;;26.50;1.00;;;;;;5032280;28;20057;-81
2022/08/05 03:09:47;;;;;;;2.33;2.13;;;26.50;1.00;;;;;;5031764;28;20104;-81
2022/08/05 03:12:32;;;;;;;3.17;2.22;;;26.50;1.00;;;;;;5032493;28;20040;-81
2022/08/05 03:14:58;;;;;;;2.85;2.30;;;26.50;1.00;;;;;;5031898;28;20021;-81
2022/08/05 03:17:24;;;;;;;3.88;2.42;;;26.50;1.00;;;;;;5032192;28;20551;-81
2022/08/05 03:19:50;;;;;;;4.65;2.42;;;26.60;1.00;;;;;;5031982;28;20064;-81
2022/08/05 03:22:15;;;;;;;3.17;2.30;;;26.50;1.00;;;;;;5031664;28;20026;-81
2022/08/05 03:24:43;;;;;;;4.55;2.20;;;26.50;1.00;;;;;;5032299;28;20030;-82
2022/08/05 03:27:09;;;;;;;3.17;2.30;;;26.50;1.00;;;;;;5031830;28;20132;-81
2022/08/05 03:29:35;;;;;;;2.85;2.30;;;26.40;1.00;;;;;;5031527;28;20117;-81
2022/08/05 03:32:02;;;;;;;3.83;2.33;;;26.40;1.00;;;;;;5031931;28;20448;-81
2022/08/05 03:34:28;;;;;;;2.78;2.13;;;26.50;1.00;;;;;;5031892;28;20033;-81
2022/08/05 03:36:54;;;;;;;2.90;2.10;;;26.40;1.00;;;;;;5031560;28;20041;-81
2022/08/05 03:39:20;;;;;;;4.43;2.70;;;26.40;1.00;;;;;;5031915;28;20025;-81
2022/08/05 03:41:45;;;;;;;4.03;2.50;;;26.30;1.00;;;;;;5032136;28;20021;-81
2022/08/05 03:44:11;;;;;;;2.50;2.30;;;26.40;1.00;;;;;;5031618;28;20030;-81
2022/08/05 03:46:36;;;;;;;4.03;2.47;;;26.30;1.00;;;;;;5031780;28;20160;-81
2022/08/05 03:49:02;;;;;;;2.50;2.30;;;26.30;1.00;;;;;;5032074;28;20034;-81
2022/08/05 03:51:31;;;;;;;3.22;2.50;;;26.30;1.00;;;;;;5034607;28;20037;-81
2022/08/05 03:54:04;;;;;;;5.68;2.45;;;26.30;1.00;;;;;;5035735;28;20034;-81
2022/08/05 03:56:35;;;;;;;4.35;2.50;;;26.30;1.00;;;;;;5035772;28;20074;-81
2022/08/05 03:59:06;;;;;;;2.80;2.38;;;26.30;1.00;;;;;;5035488;28;20405;-81
2022/08/05 04:01:39;;;;;;;2.53;2.30;;;26.30;1.00;;;;;;5035371;28;20026;-81
2022/08/05 04:04:06;;;;;;;2.22;2.13;;;26.20;1.00;;;;;;5035767;28;20065;-81
2022/08/05 04:06:36;;;;;;;2.72;2.53;;;26.10;1.00;;;;;;5035223;28;20025;-81
2022/08/05 04:09:07;;;;;;;2.83;2.25;;;26.10;1.00;;;;;;5035363;28;20041;-81
2022/08/05 04:11:36;;;;;;;2.90;2.60;;;26.10;1.00;;;;;;5035342;28;20363;-81
2022/08/05 04:14:03;;;;;;;4.15;2.20;;;26.10;1.00;;;;;;5035099;28;20042;-81
2022/08/05 04:16:30;;;;;;;2.58;2.30;;;26.10;1.00;;;;;;5035348;28;20029;-81
2022/08/05 04:18:56;;;;;;;6.13;2.47;;;26.10;1.00;;;;;;5035422;28;20040;-81
2022/08/05 04:21:22;;;;;;;3.85;2.30;;;26.10;1.00;;;;;;5035071;28;20665;-79
2022/08/05 04:23:48;;;;;;;2.47;2.28;;;26.00;1.00;;;;;;5035076;28;20437;-81
2022/08/05 04:26:14;;;;;;;3.67;2.40;;;26.10;1.00;;;;;;5034809;28;20087;-81
2022/08/05 04:28:40;;;;;;;2.88;2.40;;;26.00;1.00;;;;;;5043375;28;20068;-81
2022/08/05 04:31:06;;;;;;;4.45;2.13;;;26.10;1.00;;;;;;5036593;28;20037;-81
2022/08/05 04:33:31;;;;;;;3.15;2.35;;;26.10;1.00;;;;;;5034818;28;20037;-81
2022/08/05 04:35:57;;;;;;;3.88;2.10;;;26.10;1.00;;;;;;5034684;28;20037;-81
2022/08/05 04:38:23;;;;;;;3.33;2.20;;;26.10;1.00;;;;;;5035148;28;20068;-81
2022/08/05 04:40:48;;;;;;;3.53;2.10;;;26.10;1.00;;;;;;5034894;28;20137;-81
2022/08/05 04:43:14;;;;;;;4.88;2.08;;;26.10;1.00;;;;;;5034602;28;20022;-81
2022/08/05 04:45:40;;;;;;;3.40;2.28;;;25.90;1.00;;;;;;5034672;28;20033;-81
2022/08/05 04:48:08;;;;;;;2.85;2.42;;;25.90;1.00;;;;;;5034940;28;20107;-81
2022/08/05 04:50:39;;;;;;;3.25;2.30;;;26.00;1.00;;;;;;5034312;28;20021;-81
2022/08/05 04:53:06;;;;;;;5.93;2.95;;;26.00;1.00;;;;;;5034558;28;20053;-81
2022/08/05 04:55:32;;;;;;;2.88;2.50;;;26.00;1.00;;;;;;5034394;28;20490;-81
2022/08/05 04:57:58;;;;;;;3.10;2.20;;;26.10;1.00;;;;;;5034582;28;20025;-81
2022/08/05 05:00:23;;;;;;;3.85;2.65;;;26.30;1.00;;;;;;5033474;28;20444;-81
2022/08/05 05:02:49;;;;;;;4.25;2.50;;;26.30;1.00;;;;;;5034305;28;20032;-81
2022/08/05 05:05:16;;;;;;;2.40;2.17;;;26.40;1.00;;;;;;5034108;28;20139;-81
2022/08/05 05:07:42;;;;;;;3.42;2.80;;;26.50;1.00;;;;;;5033810;28;20040;-81
2022/08/05 05:10:07;;;;;;;3.47;2.70;;;26.30;1.00;;;;;;5034624;28;20021;-81
2022/08/05 05:12:33;;;;;;;5.05;2.58;;;26.40;1.00;;;;;;5033957;28;20034;-81
2022/08/05 05:14:59;;;;;;;3.10;2.80;;;26.40;1.00;;;;;;5034096;28;20041;-81
2022/08/05 05:17:24;;;;;;;3.22;2.30;;;26.50;1.00;;;;;;5034524;28;20075;-81
2022/08/05 05:19:56;;;;;;;3.08;2.67;;;26.50;1.00;;;;;;5033758;28;20021;-81
2022/08/05 05:22:22;;;;;;;4.05;2.33;;;26.60;1.00;;;;;;5034158;28;20022;-81
2022/08/05 05:24:47;;;;;;;2.72;2.30;;;26.30;1.00;;;;;;5034268;28;20121;-81
2022/08/05 05:27:13;;;;;;;2.70;2.50;;;26.30;1.00;;;;;;5033745;28;20057;-81
2022/08/05 05:29:38;;;;;;;3.53;2.63;;;26.40;1.00;;;;;;5033593;28;20037;-81
2022/08/05 05:32:04;;;;;;;3.88;2.47;;;26.50;1.00;;;;;;5033824;28;20022;-81
2022/08/05 05:34:30;;;;;;;3.15;2.40;;;26.50;1.00;;;;;;5033458;28;20041;-81
2022/08/05 05:36:55;;;;;;;3.85;2.25;;;26.50;1.00;;;;;;5033750;28;20367;-81
2022/08/05 05:39:21;;;;;;;2.63;2.42;;;26.50;1.00;;;;;;5034054;28;20064;-82
2022/08/05 05:41:47;;;;;;;5.70;2.40;;;26.50;1.00;;;;;;5033749;28;20029;-81
2022/08/05 05:44:12;;;;;;;5.80;2.78;;;26.50;1.00;;;;;;5033521;28;20531;-81
2022/08/05 05:46:38;;;;;;;3.90;2.42;;;26.50;1.00;;;;;;5033554;28;20026;-81
2022/08/05 05:49:03;;;;;;;7.43;3.40;;;26.60;1.00;;;;;;5033056;28;20064;-81
2022/08/05 05:51:29;;;;;;;6.47;3.60;;;26.60;1.00;;;;;;5033797;28;20022;-81
2022/08/05 05:53:56;;;;;;;5.22;3.42;;;26.50;1.00;;;;;;5033277;28;20022;-81
2022/08/05 05:56:22;;;;;;;5.80;3.53;;;26.50;1.00;;;;;;5033302;28;20032;-81
2022/08/05 05:58:47;;;;;;;6.28;3.75;;;26.50;1.00;;;;;;5033100;28;20025;-81
2022/08/05 06:01:13;;;;;;;5.78;3.58;;;26.60;1.00;;;;;;5033201;28;20030;-81
2022/08/05 06:03:40;;;;;;;5.95;3.35;;;26.60;1.00;;;;;;5032707;28;20029;-81
2022/08/05 06:06:06;;;;;;;7.07;2.90;;;26.70;1.00;;;;;;5033236;28;20022;-82
2022/08/05 06:08:32;;;;;;;5.00;2.60;;;26.70;1.00;;;;;;5033282;28;20104;-81
2022/08/05 06:10:58;;;;;;;3.53;2.58;;;26.90;1.00;;;;;;5033080;28;20557;-81
2022/08/05 06:13:23;;;;;;;3.20;2.88;;;26.90;1.00;;;;;;5032626;28;20038;-81
2022/08/05 06:15:49;;;;;;;5.03;2.88;;;27.00;1.00;;;;;;5033119;28;20060;-81
2022/08/05 06:18:14;;;;;;;4.40;2.88;;;27.00;1.00;;;;;;5032962;28;20026;-82
2022/08/05 06:20:40;;;;;;;4.93;2.78;;;27.10;1.00;;;;;;5032955;28;20030;-81
2022/08/05 06:23:06;;;;;;;9.27;2.85;;;27.10;1.00;;;;;;5032818;28;20025;-81
2022/08/05 06:25:31;;;;;;;3.88;2.70;;;27.20;1.00;;;;;;5032860;28;20110;-81
2022/08/05 06:27:57;;;;;;;4.55;2.55;;;27.30;1.00;;;;;;5032950;28;20133;-81
2022/08/05 06:30:25;;;;;;;4.03;2.72;;;27.10;1.00;;;;;;5032734;28;20044;-81
2022/08/05 06:32:51;;;;;;;6.40;2.78;;;27.30;1.00;;;;;;5032395;28;20021;-81
2022/08/05 06:35:18;;;;;;;4.82;2.80;;;27.40;1.00;;;;;;5033243;28;20113;-81
2022/08/05 06:37:44;;;;;;;7.78;3.33;;;27.50;1.00;;;;;;5031899;28;20363;-81
2022/08/05 06:40:10;;;;;;;3.58;2.88;;;27.40;1.00;;;;;;5031683;28;20037;-81
2022/08/05 06:42:37;;;;;;;2.90;2.58;;;27.60;1.00;;;;;;5032612;28;20026;-81
2022/08/05 06:45:03;;;;;;;5.13;3.00;;;27.60;1.00;;;;;;5032404;28;20056;-81
2022/08/05 06:47:29;;;;;;;4.03;2.58;;;27.80;1.00;;;;;;5031945;28;20022;-81
2022/08/05 06:49:55;;;;;;;4.43;3.00;;;27.90;1.00;;;;;;5032820;28;20025;-81
2022/08/05 06:52:21;;;;;;;7.70;3.00;;;28.00;1.00;;;;;;5032162;28;20022;-81
2022/08/05 06:54:46;;;;;;;3.70;2.72;;;28.00;1.00;;;;;;5032400;28;20076;-81
2022/08/05 06:57:13;;;;;;;4.68;2.80;;;28.00;1.00;;;;;;5032678;28;20390;-81
2022/08/05 06:59:40;;;;;;;4.72;2.92;;;28.20;1.00;;;;;;5031791;28;20759;-81
2022/08/05 07:02:06;;;;;;;3.85;2.80;;;28.20;1.00;;;;;;5032273;28;20021;-80
2022/08/05 07:04:31;;;;;;;13.38;3.38;;;28.20;1.00;;;;;;5032107;28;20029;-80
2022/08/05 07:06:57;;;;;;;4.03;2.80;;;28.20;1.00;;;;;;5032237;28;20514;-81
2022/08/05 07:09:23;;;;;;;4.38;2.80;;;28.40;1.00;;;;;;5032140;28;20108;-81
2022/08/05 07:11:48;;;;;;;3.70;2.88;;;28.40;1.00;;;;;;5032247;28;20113;-81
2022/08/05 07:17:02;;;;;;;3.85;2.88;;;28.60;1.00;;;;;;5031467;28;20509;-80
2022/08/05 07:19:28;;;;;;;3.50;3.20;;;28.70;1.00;;;;;;5031955;28;20033;-81
2022/08/05 07:21:54;;;;;;;4.50;2.90;;;28.60;1.00;;;;;;5031676;28;20111;-81
2022/08/05 07:24:20;;;;;;;4.13;2.90;;;28.70;1.00;;;;;;5032342;28;20076;-85
2022/08/05 07:26:47;;;;;;;6.07;3.08;;;28.90;1.00;;;;;;5036108;28;20034;-82
2022/08/05 07:29:13;;;;;;;5.03;3.72;;;29.10;1.00;;;;;;5035150;28;20048;-85
2022/08/05 07:31:40;;;;;;;7.13;3.40;;;29.10;1.00;;;;;;5035535;28;20375;-85
2022/08/05 07:34:06;;;;;;;4.10;2.90;;;29.20;1.00;;;;;;5035838;28;20124;-85
2022/08/05 07:36:32;;;;;;;3.28;3.08;;;29.20;1.00;;;;;;5035851;28;20101;-84
2022/08/05 07:39:00;;;;;;;4.18;3.10;;;29.30;1.00;;;;;;5036008;28;20069;-85
2022/08/05 07:41:26;;;;;;;4.55;3.30;;;29.40;1.00;;;;;;5027575;28;20018;-85
2022/08/05 07:43:52;;;;;;;6.10;3.00;;;29.50;1.00;;;;;;5015741;28;20033;-85
2022/08/05 07:46:18;;;;;;;3.47;2.90;;;29.60;1.00;;;;;;5017815;28;20099;-84
2022/08/05 07:48:44;;;;;;;3.58;2.92;;;29.70;1.00;;;;;;5032012;28;20163;-84
2022/08/05 07:51:09;;;;;;;5.68;3.30;;;29.70;1.00;;;;;;5015919;28;20113;-85
2022/08/05 07:53:38;;;;;;;4.88;2.97;;;29.80;1.00;;;;;;5014367;28;20482;-84
2022/08/05 07:56:04;;;;;;;6.80;3.20;;;29.80;1.00;;;;;;5029823;28;20113;-85
2022/08/05 07:58:29;;;;;;;5.00;3.20;;;29.90;1.00;;;;;;5034907;28;20032;-85
2022/08/05 08:00:55;;;;;;;4.13;2.92;;;29.80;1.00;;;;;;5035387;28;20030;-85
2022/08/05 08:03:21;;;;;;;4.95;3.33;;;29.90;1.00;;;;;;5035801;28;20032;-85
2022/08/05 08:05:49;;;;;;;3.55;3.25;;;29.90;1.00;;;;;;5035106;28;20485;-85
2022/08/05 08:08:15;;;;;;;5.60;3.28;;;29.90;1.00;;;;;;5034591;28;20029;-85
2022/08/05 08:10:41;;;;;;;3.72;3.38;;;30.10;1.00;;;;;;5035011;28;20035;-85
2022/08/05 08:13:06;;;;;;;6.43;3.00;;;30.20;1.00;;;;;;5034835;28;20022;-85
2022/08/05 08:15:32;;;;;;;5.50;3.30;;;30.40;1.00;;;;;;5035128;28;20494;-85
2022/08/05 08:17:57;;;;;;;3.47;3.00;;;30.30;1.00;;;;;;5035158;28;20021;-85
2022/08/05 08:20:24;;;;;;;5.43;3.50;;;30.40;1.00;;;;;;5035462;28;20087;-85
2022/08/05 08:22:52;;;;;;;3.95;3.13;;;30.30;1.00;;;;;;5035068;28;20053;-85
2022/08/05 08:25:18;;;;;;;6.70;3.70;;;30.40;1.00;;;;;;5035031;28;20052;-84
2022/08/05 08:27:44;;;;;;;5.75;3.47;;;30.60;1.00;;;;;;5034309;28;20144;-85
2022/08/05 08:30:10;;;;;;;5.20;3.70;;;30.50;1.00;;;;;;5034659;28;20084;-86
2022/08/05 08:32:36;;;;;;;3.70;3.20;;;30.70;1.00;;;;;;5034872;28;20393;-85
2022/08/05 08:35:02;;;;;;;6.28;3.80;;;30.80;1.00;;;;;;5034641;28;20030;-85
2022/08/05 08:37:28;;;;;;;6.97;3.95;;;30.80;1.00;;;;;;5034665;28;20117;-85
2022/08/05 08:39:53;;;;;;;6.25;3.63;;;31.00;1.00;;;;;;5034839;28;20512;-85
2022/08/05 08:42:21;;;;;;;8.70;3.70;;;31.10;1.00;;;;;;5034329;28;20030;-85
2022/08/05 08:44:48;;;;;;;5.55;3.83;;;31.10;1.00;;;;;;5034963;28;20537;-85
2022/08/05 08:47:14;;;;;;;9.93;3.90;;;31.20;1.00;;;;;;5034575;28;20398;-85
2022/08/05 08:49:44;;;;;;;9.35;3.83;;;31.40;1.00;;;;;;5034627;28;20402;-85
2022/08/05 08:52:20;;;;;;;5.22;3.92;;;31.60;1.00;;;;;;5034604;28;20096;-85
2022/08/05 08:54:46;;;;;;;4.57;3.90;;;31.60;1.00;;;;;;5034500;28;20037;-85
2022/08/05 08:57:13;;;;;;;4.88;3.70;;;31.60;1.00;;;;;;5034586;28;20031;-85
2022/08/05 08:59:39;;;;;;;5.05;3.90;;;31.60;1.00;;;;;;5034534;28;20030;-85
2022/08/05 09:02:06;;;;;;;5.70;3.58;;;31.70;1.00;;;;;;5034652;28;20501;-85
2022/08/05 09:04:38;;;;;;;9.52;3.67;;;31.80;1.00;;;;;;5034331;28;20029;-85
2022/08/05 09:07:05;;;;;;;3.90;3.47;;;31.90;1.00;;;;;;5034278;28;20121;-85
2022/08/05 09:09:32;;;;;;;5.10;3.92;;;31.80;1.00;;;;;;5034101;28;20017;-85
2022/08/05 09:11:57;;;;;;;5.57;3.67;;;31.90;1.00;;;;;;5033904;28;20036;-85
2022/08/05 09:14:23;;;;;;;4.60;4.10;;;32.10;1.00;;;;;;5033981;28;20439;-85
2022/08/05 09:16:50;;;;;;;7.32;3.90;;;32.00;1.00;;;;;;5031117;28;20562;-85
2022/08/05 09:19:15;;;;;;;4.90;3.72;;;32.00;1.00;;;;;;5033876;28;20021;-85
2022/08/05 09:21:41;;;;;;;6.43;3.67;;;32.00;1.00;;;;;;5030702;28;20503;-85
2022/08/05 09:24:08;;;;;;;4.85;3.83;;;32.20;1.00;;;;;;5029855;28;20029;-84
2022/08/05 09:26:35;;;;;;;4.20;3.90;;;32.30;1.00;;;;;;5033278;28;20058;-85
2022/08/05 09:29:05;;;;;;;4.65;4.10;;;32.40;1.00;;;;;;5032817;28;20017;-85
2022/08/05 09:31:31;;;;;;;6.90;3.90;;;32.70;1.00;;;;;;5034281;28;20029;-85
2022/08/05 09:33:58;;;;;;;6.80;4.10;;;32.70;1.00;;;;;;5033643;28;20025;-85
2022/08/05 09:36:44;;;;;;;6.57;4.10;;;32.60;1.00;;;;;;5033671;28;20038;-85
2022/08/05 09:39:12;;;;;;;4.40;3.97;;;32.70;1.00;;;;;;5032897;28;20029;-86
2022/08/05 09:41:57;;;;;;;5.45;3.92;;;32.70;1.00;;;;;;5033657;28;20034;-85
2022/08/05 09:44:40;;;;;;;6.93;3.95;;;32.70;1.00;;;;;;5033404;28;20021;-85
2022/08/05 09:47:11;;;;;;;7.45;3.97;;;32.50;1.00;;;;;;5032814;28;20041;-85
2022/08/05 09:49:42;;;;;;;7.47;4.15;;;32.90;1.00;;;;;;5032318;28;20105;-86
2022/08/05 09:52:17;;;;;;;7.97;4.05;;;32.90;1.00;;;;;;5015392;28;20041;-85
2022/08/05 09:54:55;;;;;;;5.22;3.92;;;32.90;1.00;;;;;;5017217;28;20040;-85
2022/08/05 09:57:46;;;;;;;5.30;4.20;;;33.00;1.00;;;;;;5030156;28;20021;-85
2022/08/05 10:00:20;;;;;;;5.70;4.00;;;32.90;1.00;;;;;;5032689;28;20091;-84
2022/08/05 10:02:48;;;;;;;4.40;4.00;;;33.00;1.00;;;;;;5032355;28;20021;-86
2022/08/05 10:05:26;;;;;;;4.57;4.18;;;33.10;1.00;;;;;;5031741;28;20505;-85
2022/08/05 10:07:56;;;;;;;4.35;3.95;;;33.10;1.00;;;;;;5028981;28;20038;-85
2022/08/05 10:10:43;;;;;;;4.35;4.00;;;33.30;1.00;;;;;;5020048;28;20021;-85
2022/08/05 10:13:09;;;;;;;5.45;4.05;;;33.30;1.00;;;;;;5018857;28;20064;-85
2022/08/05 10:15:38;;;;;;;5.32;4.30;;;33.40;1.00;;;;;;5017848;28;20710;-85
2022/08/05 10:18:14;;;;;;;4.68;4.28;;;33.50;1.00;;;;;;5017381;28;20064;-85
2022/08/05 10:21:06;;;;;;;5.68;4.18;;;33.70;1.00;;;;;;5017742;28;20096;-85
2022/08/05 10:23:34;;;;;;;8.13;4.22;;;33.80;1.00;;;;;;5019966;28;20448;-85
2022/08/05 10:26:11;;;;;;;4.80;4.40;;;33.90;1.00;;;;;;5024470;28;20450;-85
2022/08/05 10:28:37;;;;;;;8.00;4.20;;;33.80;1.00;;;;;;5023709;28;20021;-85
2022/08/05 10:31:03;;;;;;;8.20;4.63;;;34.00;1.00;;;;;;5023640;28;20029;-85
2022/08/05 10:33:31;;;;;;;6.93;4.63;;;34.20;1.00;;;;;;5025003;28;20389;-86
2022/08/05 10:35:58;;;;;;;7.38;4.53;;;34.20;1.00;;;;;;5025538;28;20034;-85
2022/08/05 10:38:27;;;;;;;6.32;4.38;;;34.20;1.00;;;;;;5022366;28;20567;-86
2022/08/05 10:41:18;;;;;;;4.95;4.50;;;34.40;1.00;;;;;;5022565;28;20029;-85
2022/08/05 10:43:57;;;;;;;4.97;4.20;;;34.60;1.00;;;;;;5023688;28;20108;-85
2022/08/05 10:46:22;;;;;;;4.60;4.18;;;34.50;1.00;;;;;;5016529;28;20018;-85
2022/08/05 10:48:54;;;;;;;8.38;4.57;;;34.60;1.00;;;;;;5019297;28;20052;-85
2022/08/05 10:51:20;;;;;;;6.65;4.53;;;35.00;1.00;;;;;;5021279;28;20022;-85
2022/08/05 10:53:57;;;;;;;7.90;4.53;;;35.20;1.00;;;;;;5028661;28;20367;-85
2022/08/05 10:56:25;;;;;;;5.57;4.05;;;34.80;1.00;;;;;;5031972;28;20041;-86
2022/08/05 10:58:56;;;;;;;5.88;4.78;;;35.00;1.00;;;;;;5031474;28;20159;-86
2022/08/05 11:01:32;;;;;;;7.25;4.22;;;35.20;1.00;;;;;;5032516;28;20028;-85
2022/08/05 11:04:22;;;;;;;9.70;4.63;;;35.20;1.00;;;;;;5032203;28;20033;-85
2022/08/05 11:06:57;;;;;;;7.22;4.40;;;35.50;1.00;;;;;;5032068;28;20167;-86
2022/08/05 11:09:43;;;;;;;9.18;4.00;;;36.10;1.00;;;;;;5031895;28;20022;-87
2022/08/05 11:12:41;;;;;;;4.65;4.20;;;36.50;1.00;;;;;;5032383;28;20155;-85
2022/08/05 11:15:15;;;;;;;5.70;4.57;;;37.70;1.00;;;;;;5021787;28;20041;-85
2022/08/05 11:17:43;;;;;;;6.15;4.53;;;40.20;1.00;;;;;;5032332;28;20185;-84
2022/08/05 11:20:44;;;;;;;5.93;4.50;;;39.20;1.00;;;;;;5031741;28;20061;-84
2022/08/05 11:23:29;;;;;;;5.63;4.40;;;40.50;1.00;;;;;;5031810;28;20366;-84
2022/08/05 11:26:18;;;;;;;6.15;4.47;;;43.50;1.00;;;;;;5030510;28;20103;-84
2022/08/05 11:28:46;;;;;;;7.50;4.20;;;45.20;1.00;;;;;;5025685;28;20041;-83
2022/08/05 11:31:12;;;;;;;9.82;4.05;;;46.30;1.00;;;;;;5015206;28;20030;-84
2022/08/05 11:34:02;;;;;;;6.75;4.25;;;46.60;1.00;;;;;;5023251;28;20030;-83
2022/08/05 11:36:47;;;;;;;7.07;3.95;;;46.90;99.90;;;;;;5024337;28;20501;-84
2022/08/05 11:39:15;;;;;;;4.85;4.30;;;46.90;99.90;;;;;;5031803;28;20501;-84
2022/08/05 11:41:48;;;;;;;5.50;3.80;;;48.00;99.90;;;;;;5031555;28;20040;-84
2022/08/05 11:44:16;;;;;;;4.32;3.92;;;48.30;99.90;;;;;;5030105;28;20026;-84
2022/08/05 11:46:47;;;;;;;5.78;4.20;;;47.10;99.90;;;;;;5030002;28;20033;-84
2022/08/05 11:49:15;;;;;;;5.32;4.03;;;46.30;99.90;;;;;;5031792;28;20045;-84
2022/08/05 11:51:43;;;;;;;4.20;3.90;;;45.90;99.90;;;;;;5021853;28;20040;-85
2022/08/05 11:54:11;;;;;;;5.22;3.85;;;47.20;99.90;;;;;;5031649;28;20021;-84
2022/08/05 11:56:48;;;;;;;5.63;4.18;;;48.30;99.90;;;;;;5031669;28;20093;-85
2022/08/05 11:59:15;;;;;;;5.38;4.35;;;47.30;99.90;;;;;;5021470;28;20363;-84
2022/08/05 12:02:00;;;;;;;4.85;4.45;;;48.80;99.90;;;;;;5031729;28;20096;-85
2022/08/05 12:04:40;;;;;;;7.05;4.60;;;46.60;99.90;;;;;;5017704;28;20517;-84
2022/08/05 12:07:07;;;;;;;4.72;4.00;;;47.60;99.90;;;;;;5031820;28;20017;-84
2022/08/05 12:09:38;;;;;;;4.80;4.38;;;48.60;99.90;;;;;;5028574;28;20104;-84
2022/08/05 12:12:06;;;;;;;4.63;4.07;;;49.90;99.90;;;;;;5033935;28;20390;-84
2022/08/05 12:14:40;;;;;;;5.75;4.57;;;49.90;99.90;;;;;;5033825;28;20112;-83
2022/08/05 12:17:09;;;;;;;4.78;4.25;;;49.80;99.90;;;;;;5031664;28;20393;-84
2022/08/05 12:19:50;;;;;;;5.18;4.20;;;50.00;99.90;;;;;;5034529;28;20524;-84
2022/08/05 12:22:20;;;;;;;4.72;4.20;;;51.50;99.90;;;;;;5018939;28;20121;-84
2022/08/05 12:24:49;;;;;;;6.20;4.70;;;50.50;99.90;;;;;;5034936;28;20103;-84
2022/08/05 12:27:21;;;;;;;4.82;4.50;;;50.40;99.90;;;;;;5035062;28;20129;-84
2022/08/05 12:30:02;;;;;;;4.57;4.18;;;50.40;99.90;;;;;;5034695;28;20033;-84
2022/08/05 12:32:30;;;;;;;6.93;4.40;;;50.90;99.90;;;;;;5034965;28;20047;-84
2022/08/05 12:34:56;;;;;;;4.88;4.57;;;50.50;99.90;;;;;;5034210;28;20076;-85
2022/08/05 12:37:22;;;;;;;5.00;4.60;;;49.90;99.90;;;;;;5033196;28;20057;-84
2022/08/05 12:39:51;;;;;;;5.30;4.85;;;49.40;99.90;;;;;;5034709;28;20030;-84
2022/08/05 12:42:18;;;;;;;6.10;4.60;;;46.90;99.90;;;;;;5034366;28;20022;-84
2022/08/05 12:44:44;;;;;;;6.88;4.50;;;43.50;99.90;;;;;;5035003;28;20025;-85
2022/08/05 12:47:11;;;;;;;5.47;4.88;;;41.80;99.90;;;;;;5034605;28;20018;-84
2022/08/05 12:49:50;;;;;;;4.88;4.47;;;41.20;99.90;;;;;;5034069;28;20482;-84
2022/08/05 12:52:19;;;;;;;5.15;4.55;;;40.60;99.90;;;;;;5034467;28;20025;-84
2022/08/05 12:54:47;;;;;;;6.35;4.78;;;40.30;99.90;;;;;;5034154;28;20047;-84
2022/08/05 12:57:13;;;;;;;8.20;4.68;;;40.20;99.90;;;;;;5034390;28;20433;-84
2022/08/05 12:59:57;;;;;;;6.43;4.65;;;40.10;99.90;;;;;;5035205;28;20025;-84
2022/08/05 13:02:24;;;;;;;5.85;5.00;;;39.40;99.90;;;;;;5034373;28;20029;-84
2022/08/05 13:04:52;;;;;;;6.32;5.18;;;39.10;1.00;;;;;;5034890;28;20080;-84
2022/08/05 13:07:23;;;;;;;6.75;5.55;;;39.00;1.00;;;;;;5034324;28;20029;-84
2022/08/05 13:09:52;;;;;;;8.50;5.43;;;39.00;1.00;;;;;;5034127;28;20397;-83